地図

経路データ

SID SEASON NUMBER BASIN SUBBASIN NAME ISO_TIME NATURE LAT LON WMO_WIND WMO_PRES WMO_AGENCY TRACK_TYPE DIST2LAND LANDFALL IFLAG USA_AGENCY USA_ATCF_ID USA_LAT USA_LON USA_RECORD USA_STATUS USA_WIND USA_PRES USA_SSHS USA_R34_NE USA_R34_SE USA_R34_SW USA_R34_NW USA_R50_NE USA_R50_SE USA_R50_SW USA_R50_NW USA_R64_NE USA_R64_SE USA_R64_SW USA_R64_NW USA_POCI USA_ROCI USA_RMW USA_EYE TOKYO_LAT TOKYO_LON TOKYO_GRADE TOKYO_WIND TOKYO_PRES TOKYO_R50_DIR TOKYO_R50_LONG TOKYO_R50_SHORT TOKYO_R30_DIR TOKYO_R30_LONG TOKYO_R30_SHORT TOKYO_LAND CMA_LAT CMA_LON CMA_CAT CMA_WIND CMA_PRES HKO_LAT HKO_LON HKO_CAT HKO_WIND HKO_PRES NEWDELHI_LAT NEWDELHI_LON NEWDELHI_GRADE NEWDELHI_WIND NEWDELHI_PRES NEWDELHI_CI NEWDELHI_DP NEWDELHI_POCI REUNION_LAT REUNION_LON REUNION_TYPE REUNION_WIND REUNION_PRES REUNION_TNUM REUNION_CI REUNION_RMW REUNION_R34_NE REUNION_R34_SE REUNION_R34_SW REUNION_R34_NW REUNION_R50_NE REUNION_R50_SE REUNION_R50_SW REUNION_R50_NW REUNION_R64_NE REUNION_R64_SE REUNION_R64_SW REUNION_R64_NW BOM_LAT BOM_LON BOM_TYPE BOM_WIND BOM_PRES BOM_TNUM BOM_CI BOM_RMW BOM_R34_NE BOM_R34_SE BOM_R34_SW BOM_R34_NW BOM_R50_NE BOM_R50_SE BOM_R50_SW BOM_R50_NW BOM_R64_NE BOM_R64_SE BOM_R64_SW BOM_R64_NW BOM_ROCI BOM_POCI BOM_EYE BOM_POS_METHOD BOM_PRES_METHOD NADI_LAT NADI_LON NADI_CAT NADI_WIND NADI_PRES WELLINGTON_LAT WELLINGTON_LON WELLINGTON_WIND WELLINGTON_PRES DS824_LAT DS824_LON DS824_STAGE DS824_WIND DS824_PRES TD9636_LAT TD9636_LON TD9636_STAGE TD9636_WIND TD9636_PRES TD9635_LAT TD9635_LON TD9635_WIND TD9635_PRES TD9635_ROCI NEUMANN_LAT NEUMANN_LON NEUMANN_CLASS NEUMANN_WIND NEUMANN_PRES MLC_LAT MLC_LON MLC_CLASS MLC_WIND MLC_PRES USA_GUST BOM_GUST BOM_GUST_PER REUNION_GUST REUNION_GUST_PER USA_SEAHGT USA_SEARAD_NE USA_SEARAD_SE USA_SEARAD_SW USA_SEARAD_NW STORM_SPEED STORM_DIR
1939232N13143 1939 54 WP MM NOT_NAMED 1939-08-20 10:00:00 NR 13.5000 142.500 main 1757 1757 __________O___ -1 13.5000 142.500 7 19 306
1939232N13143 1939 54 WP MM NOT_NAMED 1939-08-20 12:00:00 NR 13.8710 141.972 main 1778 1713 __________P___ -1 13.8710 141.972 7 19 305
1939232N13143 1939 54 WP MM NOT_NAMED 1939-08-20 15:00:00 NR 14.4126 141.150 main 1713 1628 __________P___ -1 14.4126 141.150 7 20 302
1939232N13143 1939 54 WP MM NOT_NAMED 1939-08-20 18:00:00 NR 14.9182 140.261 main 1628 1530 __________P___ -1 14.9182 140.261 7 21 298
1939232N13143 1939 54 WP MM NOT_NAMED 1939-08-20 21:00:00 NR 15.3668 139.263 main 1533 1503 __________P___ -1 15.3668 139.263 7 22 294
1939232N13143 1939 54 WP MM NOT_NAMED 1939-08-20 22:00:00 NR 15.5000 138.900 main 1493 1415 __________O___ -1 15.5000 138.900 7 23 289
1939232N13143 1939 54 WP MM NOT_NAMED 1939-08-21 00:00:00 NR 15.7387 138.122 main 1415 1290 __________P___ -1 15.7387 138.122 7 25 285
1939232N13143 1939 54 WP MM NOT_NAMED 1939-08-21 03:00:00 NR 16.0338 136.836 main 1290 1161 __________P___ -1 16.0338 136.836 7 26 282
1939232N13143 1939 54 WP MM NOT_NAMED 1939-08-21 06:00:00 NR 16.2656 135.429 main 1161 1020 __________P___ -1 16.2656 135.429 7 28 278
1939232N13143 1939 54 WP MM NOT_NAMED 1939-08-21 09:00:00 NR 16.4478 133.921 main 1020 987 __________P___ -1 16.4478 133.921 7 29 277
1939232N13143 1939 54 WP MM NOT_NAMED 1939-08-21 10:00:00 NR 16.5000 133.400 main 977 882 __________O___ -1 16.5000 133.400 7 32 275
1939232N13143 1939 54 WP MM NOT_NAMED 1939-08-21 12:00:00 NR 16.5939 132.273 main 882 725 __________P___ -1 16.5939 132.273 7 33 274
1939232N13143 1939 54 WP MM NOT_NAMED 1939-08-21 15:00:00 NR 16.6955 130.504 main 725 572 __________P___ -1 16.6955 130.504 7 34 273
1939232N13143 1939 54 WP MM NOT_NAMED 1939-08-21 18:00:00 NR 16.7746 128.760 main 572 449 __________P___ -1 16.7746 128.760 7 32 273
1939232N13143 1939 54 WP MM NOT_NAMED 1939-08-21 21:00:00 NR 16.8626 127.172 main 449 420 __________P___ -1 16.8626 127.172 7 30 274
1939232N13143 1939 54 WP MM NOT_NAMED 1939-08-21 22:00:00 NR 16.9000 126.700 main 414 361 __________O___ -1 16.9000 126.700 7 24 276
1939232N13143 1939 54 WP MM NOT_NAMED 1939-08-22 00:00:00 NR 16.9969 125.910 main 361 256 __________P___ -1 16.9969 125.910 7 21 279
1939232N13143 1939 54 WP MM NOT_NAMED 1939-08-22 03:00:00 NR 17.1721 124.913 main 256 175 __________P___ -1 17.1721 124.913 7 18 282
1939232N13143 1939 54 WP MM NOT_NAMED 1939-08-22 06:00:00 NR 17.3803 124.063 main 175 101 __________P___ -1 17.3803 124.063 7 16 286
1939232N13143 1939 54 WP MM NOT_NAMED 1939-08-22 09:00:00 NR 17.6163 123.268 main 101 77 __________P___ -1 17.6163 123.268 7 16 288
1939232N13143 1939 54 WP MM NOT_NAMED 1939-08-22 10:00:00 NR 17.7000 123.000 main 77 30 __________O___ -1 17.7000 123.000 3 18 287
1939232N13143 1939 54 WP MM NOT_NAMED 1939-08-22 12:00:00 NR 17.8737 122.374 main 30 0 __________P___ -1 17.8737 122.374 3 19 287
1939232N13143 1939 54 WP MM NOT_NAMED 1939-08-22 15:00:00 NR 18.1539 121.440 main 0 0 __________P___ -1 18.1539 121.440 3 18 288
1939232N13143 1939 54 WP MM NOT_NAMED 1939-08-22 18:00:00 NR 18.4405 120.532 main 10 15 __________P___ -1 18.4405 120.532 3 18 288
1939232N13143 1939 54 WP MM NOT_NAMED 1939-08-22 21:00:00 NR 18.7146 119.672 main 100 110 __________P___ -1 18.7146 119.672 3 17 289
1939232N13143 1939 54 WP MM NOT_NAMED 1939-08-22 22:00:00 NR 18.8000 119.400 main 134 134 __________O___ -1 18.8000 119.400 4 16 287
1939232N13143 1939 54 WP MM NOT_NAMED 1939-08-23 00:00:00 NR 18.9464 118.884 main 187 201 __________P___ -1 18.9464 118.884 4 15 287
1939232N13143 1939 54 WP MM NOT_NAMED 1939-08-23 03:00:00 NR 19.1482 118.161 main 264 277 __________P___ -1 19.1482 118.161 4 14 287
1939232N13143 1939 54 WP MM NOT_NAMED 1939-08-23 06:00:00 NR 19.3397 117.481 main 341 354 __________P___ -1 19.3397 117.481 4 13 287
1939232N13143 1939 54 WP MM NOT_NAMED 1939-08-23 09:00:00 NR 19.5331 116.820 main 372 356 __________P___ -1 19.5331 116.820 4 13 287
1939232N13143 1939 54 WP MM NOT_NAMED 1939-08-23 10:00:00 NR 19.6000 116.600 main 356 326 __________O___ -1 19.6000 116.600 4 13 291
1939232N13143 1939 54 WP MM NOT_NAMED 1939-08-23 12:00:00 NR 19.7638 116.171 main 326 285 __________P___ -1 19.7638 116.171 4 13 293
1939232N13143 1939 54 WP MM NOT_NAMED 1939-08-23 15:00:00 NR 20.0170 115.534 main 285 232 __________P___ -1 20.0170 115.534 4 13 292
1939232N13143 1939 54 WP MM NOT_NAMED 1939-08-23 18:00:00 NR 20.2549 114.874 main 232 208 __________P___ -1 20.2549 114.874 4 14 289
1939232N13143 1939 54 WP MM NOT_NAMED 1939-08-23 21:00:00 NR 20.4496 114.158 main 208 182 __________P___ -1 20.4496 114.158 4 14 285
1939232N13143 1939 54 WP MM NOT_NAMED 1939-08-23 22:00:00 NR 20.5000 113.900 main 182 148 __________O___ -1 20.5000 113.900 4 15 280
1939232N13143 1939 54 WP MM NOT_NAMED 1939-08-24 00:00:00 NR 20.5779 113.348 main 148 124 __________P___ -1 20.5779 113.348 4 16 276
1939232N13143 1939 54 WP MM NOT_NAMED 1939-08-24 03:00:00 NR 20.6446 112.457 main 124 80 __________P___ -1 20.6446 112.457 4 17 273
1939232N13143 1939 54 WP MM NOT_NAMED 1939-08-24 06:00:00 NR 20.6568 111.511 main 80 10 __________P___ -1 20.6568 111.511 4 18 269
1939232N13143 1939 54 WP MM NOT_NAMED 1939-08-24 09:00:00 NR 20.6212 110.531 main 10 0 __________P___ -1 20.6212 110.531 4 18 267
1939232N13143 1939 54 WP MM NOT_NAMED 1939-08-24 10:00:00 NR 20.6000 110.200 main 0 0 __________O___ -1 20.6000 110.200 4 19 265
1939232N13143 1939 54 WP MM NOT_NAMED 1939-08-24 12:00:00 NR 20.5451 109.536 main 31 31 __________P___ -1 20.5451 109.536 4 19 264
1939232N13143 1939 54 WP MM NOT_NAMED 1939-08-24 15:00:00 NR 20.4362 108.537 main 107 74 __________P___ -1 20.4362 108.537 4 19 263
1939232N13143 1939 54 WP MM NOT_NAMED 1939-08-24 18:00:00 NR 20.3026 107.536 main 74 0 __________P___ -1 20.3026 107.536 4 19 261
1939232N13143 1939 54 WP MM NOT_NAMED 1939-08-24 21:00:00 NR 20.1523 106.534 main 0 0 __________P___ -1 20.1523 106.534 4 19 261
1939232N13143 1939 54 WP MM NOT_NAMED 1939-08-24 22:00:00 NR 20.1000 106.200 main 0 __________O___ -1 20.1000 106.200 2 19 261

デジタル台風データ・検索

IBTrACS Databaseについて

本データベースは、米国NOAAが公開する1842年以降の世界の熱帯低気圧のベストトラックデータアーカイブInternational Best Track Archive for Climate Stewardship (IBTrACS)を、ウェブで閲覧しやすい形式に変換したものです。

最終更新日:2021-10-21